Time;durP1;ratioP1;P1;durP2;ratioP2;P2;SDS_P1;SDS_P2;PMS_P1;PMS_P2;Temp;Humidity;BMP_temperature;BMP_pressure;BME280_temperature;BME280_humidity;BME280_pressure;Samples;Min_cycle;Max_cycle;Signal;HPM_P1;HPM_P2
2021/06/15 00:01:36;;;;;;;9.35;6.90;;;21.20;76.50;;;;;;5092398;28;20035;-55
2021/06/15 00:04:21;;;;;;;10.02;7.28;;;21.20;76.80;;;;;;5091116;28;20047;-55
2021/06/15 00:07:04;;;;;;;10.80;8.00;;;21.20;77.10;;;;;;5056061;28;20044;-56
2021/06/15 00:09:48;;;;;;;10.98;7.30;;;21.20;76.30;;;;;;5071480;28;20316;-56
2021/06/15 00:12:32;;;;;;;11.25;8.38;;;21.00;76.50;;;;;;5090686;28;20098;-55
2021/06/15 00:15:17;;;;;;;9.48;8.02;;;21.00;76.50;;;;;;5105462;28;20405;-53
2021/06/15 00:18:02;;;;;;;12.27;8.40;;;20.90;76.30;;;;;;5106519;28;20452;-60
2021/06/15 00:20:47;;;;;;;11.70;7.85;;;20.90;76.30;;;;;;5092127;28;20081;-60
2021/06/15 00:23:32;;;;;;;11.50;8.20;;;20.90;76.20;;;;;;5092993;28;20039;-58
2021/06/15 00:26:16;;;;;;;;;;;21.00;76.00;;;;;;5085540;28;20165;-58
2021/06/15 00:29:00;;;;;;;11.80;7.97;;;20.90;76.40;;;;;;5073452;28;19915;-58
2021/06/15 00:31:44;;;;;;;8.85;6.93;;;21.10;76.60;;;;;;5089604;28;20111;-58
2021/06/15 00:34:47;;;;;;;8.27;7.10;;;21.00;76.60;;;;;;5075357;28;20104;-59
2021/06/15 00:37:32;;;;;;;8.48;7.35;;;21.00;77.90;;;;;;5074797;28;20043;-57
2021/06/15 00:40:17;;;;;;;16.30;11.23;;;21.00;79.10;;;;;;5075295;28;20427;-56
2021/06/15 00:43:01;;;;;;;25.38;16.40;;;21.00;79.10;;;;;;5075477;28;20035;-56
2021/06/15 00:45:45;;;;;;;15.25;10.45;;;21.00;78.80;;;;;;5075291;28;20121;-57
2021/06/15 00:48:35;;;;;;;12.77;8.40;;;21.00;78.90;;;;;;5074398;28;20097;-59
2021/06/15 00:51:21;;;;;;;15.82;9.32;;;20.90;79.50;;;;;;5059845;28;20557;-59
2021/06/15 00:54:05;;;;;;;12.27;11.00;;;20.90;80.00;;;;;;5074924;28;20071;-59
2021/06/15 00:56:50;;;;;;;;;;;20.90;80.30;;;;;;5075327;28;20391;-57
2021/06/15 00:59:34;;;;;;;12.25;9.50;;;20.80;80.50;;;;;;5059301;28;19970;-60
2021/06/15 01:02:18;;;;;;;11.80;10.45;;;20.80;80.60;;;;;;5074953;28;20087;-59
2021/06/15 01:05:08;;;;;;;13.93;10.95;;;20.80;81.00;;;;;;5074499;28;20043;-59
2021/06/15 01:08:31;;;;;;;11.80;9.65;;;20.80;81.10;;;;;;5060001;28;20435;-60
2021/06/15 01:11:37;;;;;;;11.43;9.80;;;20.70;81.30;;;;;;5059548;28;20023;-59
2021/06/15 01:14:27;;;;;;;11.65;9.15;;;20.60;81.60;;;;;;5074548;28;20027;-58
2021/06/15 01:17:26;;;;;;;10.65;8.85;;;20.60;82.20;;;;;;5074005;28;20063;-61
2021/06/15 01:20:16;;;;;;;15.05;9.52;;;20.60;82.00;;;;;;5078169;28;20035;-59
2021/06/15 01:23:24;;;;;;;14.07;9.05;;;20.50;82.40;;;;;;5094862;28;20031;-58
2021/06/15 01:26:51;;;;;;;10.75;9.25;;;20.40;82.70;;;;;;5094391;28;20027;-60
2021/06/15 01:29:38;;;;;;;10.35;8.82;;;20.50;83.50;;;;;;5092898;28;20039;-60
2021/06/15 01:32:30;;;;;;;9.13;8.13;;;20.40;83.00;;;;;;5079379;28;20027;-57
2021/06/15 01:35:15;;;;;;;10.27;9.27;;;20.40;83.00;;;;;;5079187;28;20043;-58
2021/06/15 01:38:12;;;;;;;10.60;8.35;;;20.40;83.10;;;;;;5094892;28;20575;-60
2021/06/15 01:41:08;;;;;;;11.02;8.48;;;20.30;83.50;;;;;;5095040;28;20073;-57
2021/06/15 01:44:00;;;;;;;8.55;7.65;;;20.30;83.80;;;;;;5095963;28;20512;-60
2021/06/15 01:46:59;;;;;;;10.38;7.70;;;20.20;83.80;;;;;;5095053;28;20038;-58
2021/06/15 01:49:46;;;;;;;8.77;7.50;;;20.20;84.10;;;;;;5094131;28;20031;-58
2021/06/15 01:52:34;;;;;;;11.88;8.55;;;20.20;84.40;;;;;;5094590;28;20134;-58
2021/06/15 01:55:21;;;;;;;10.40;9.40;;;20.10;84.50;;;;;;5094737;28;20051;-56
2021/06/15 01:58:07;;;;;;;11.85;8.93;;;20.00;85.00;;;;;;5094137;28;20455;-56
2021/06/15 02:00:54;;;;;;;16.05;12.30;;;20.00;85.40;;;;;;5094345;28;20509;-57
2021/06/15 02:03:41;;;;;;;12.25;10.90;;;20.00;85.40;;;;;;5094489;28;20078;-58
2021/06/15 02:06:27;;;;;;;12.70;8.10;;;19.80;86.00;;;;;;5094831;28;20387;-57
2021/06/15 02:09:17;;;;;;;10.10;8.32;;;19.80;86.10;;;;;;5093231;28;20050;-57
2021/06/15 02:12:04;;;;;;;10.07;7.47;;;19.80;86.00;;;;;;5094247;28;20039;-55
2021/06/15 02:14:48;;;;;;;8.80;7.82;;;19.80;85.80;;;;;;5094434;28;20066;-58
2021/06/15 02:17:34;;;;;;;8.23;7.40;;;19.80;85.60;;;;;;5093923;28;20034;-59
2021/06/15 02:20:22;;;;;;;8.60;7.70;;;19.80;85.90;;;;;;5078316;28;20038;-56
2021/06/15 02:23:10;;;;;;;8.77;7.40;;;19.80;86.00;;;;;;5094224;28;20058;-58
2021/06/15 02:25:59;;;;;;;10.50;7.38;;;19.80;86.10;;;;;;5093954;28;20506;-56
2021/06/15 02:28:44;;;;;;;7.70;6.78;;;19.70;85.90;;;;;;5093701;28;20038;-56
2021/06/15 02:31:34;;;;;;;8.57;7.47;;;19.60;86.30;;;;;;5093468;28;20494;-61
2021/06/15 02:34:21;;;;;;;8.70;7.07;;;19.60;86.20;;;;;;5093974;28;20142;-57
2021/06/15 02:37:10;;;;;;;9.43;7.57;;;19.60;86.20;;;;;;5093279;28;20035;-57
2021/06/15 02:39:56;;;;;;;9.25;7.32;;;19.50;86.50;;;;;;5093699;28;20456;-54
2021/06/15 02:42:44;;;;;;;8.30;7.25;;;19.50;86.30;;;;;;5093578;28;20192;-56
2021/06/15 02:45:31;;;;;;;9.80;7.85;;;19.50;86.60;;;;;;5093603;28;20031;-58
2021/06/15 02:48:17;;;;;;;8.80;7.25;;;19.40;86.90;;;;;;5093018;28;20035;-56
2021/06/15 02:51:04;;;;;;;8.20;7.22;;;19.30;87.30;;;;;;5092809;28;20040;-60
2021/06/15 02:54:01;;;;;;;8.27;6.65;;;19.30;87.50;;;;;;5092183;28;20035;-56
2021/06/15 02:56:50;;;;;;;7.97;7.18;;;19.30;87.50;;;;;;5093021;28;20031;-63
2021/06/15 02:59:38;;;;;;;8.50;7.40;;;19.30;87.40;;;;;;5092882;28;20152;-56
2021/06/15 03:02:23;;;;;;;7.97;6.97;;;19.30;87.40;;;;;;5092411;28;20099;-60
2021/06/15 03:05:17;;;;;;;8.90;7.18;;;19.30;87.20;;;;;;5092810;28;20107;-58
2021/06/15 03:08:02;;;;;;;8.10;7.22;;;19.40;87.10;;;;;;5093678;28;20038;-60
2021/06/15 03:10:47;;;;;;;8.27;7.30;;;19.30;87.50;;;;;;5094742;28;20096;-56
2021/06/15 03:13:49;;;;;;;9.82;7.68;;;19.20;87.60;;;;;;5093028;28;20556;-56
2021/06/15 03:16:34;;;;;;;10.30;7.57;;;19.10;87.70;;;;;;5092626;28;20478;-59
2021/06/15 03:19:54;;;;;;;10.00;7.45;;;19.10;87.70;;;;;;5092475;28;20124;-60
2021/06/15 03:23:13;;;;;;;8.27;6.60;;;19.10;87.50;;;;;;5072355;28;20039;-57
2021/06/15 03:26:00;;;;;;;9.85;7.68;;;19.10;87.50;;;;;;5083855;28;20043;-60
2021/06/15 03:28:50;;;;;;;8.07;6.40;;;19.20;87.60;;;;;;5092376;28;20039;-60
2021/06/15 03:31:39;;;;;;;9.07;6.95;;;19.20;87.70;;;;;;5077481;28;20031;-60
2021/06/15 03:34:28;;;;;;;8.32;6.53;;;19.20;87.60;;;;;;5090935;28;20122;-59
2021/06/15 03:37:17;;;;;;;7.95;7.07;;;19.20;87.60;;;;;;5092321;28;20035;-58
2021/06/15 03:40:02;;;;;;;7.93;7.03;;;19.30;87.10;;;;;;5092655;28;20057;-58
2021/06/15 03:42:49;;;;;;;8.55;6.63;;;19.40;87.00;;;;;;5092502;28;20085;-57
2021/06/15 03:45:45;;;;;;;10.07;7.18;;;19.40;86.90;;;;;;5092425;28;20081;-59
2021/06/15 03:48:32;;;;;;;9.18;6.15;;;19.40;86.80;;;;;;5091917;28;20177;-60
2021/06/15 03:51:32;;;;;;;9.13;6.68;;;19.40;87.50;;;;;;5092334;28;20031;-59
2021/06/15 03:54:17;;;;;;;7.50;6.70;;;19.40;86.80;;;;;;5092451;28;20089;-60
2021/06/15 03:57:02;;;;;;;11.50;7.18;;;19.50;86.90;;;;;;5091916;28;20092;-58
2021/06/15 03:59:48;;;;;;;8.00;7.07;;;19.60;86.50;;;;;;5092091;28;20093;-60
2021/06/15 04:02:33;;;;;;;13.85;7.13;;;19.60;86.30;;;;;;5077425;28;20047;-58
2021/06/15 04:05:19;;;;;;;8.82;6.75;;;19.50;86.20;;;;;;5096545;28;20097;-58
2021/06/15 04:08:07;;;;;;;8.27;6.90;;;19.50;86.40;;;;;;5077915;28;20115;-61
2021/06/15 04:10:54;;;;;;;8.00;7.20;;;19.50;86.70;;;;;;5063315;28;20031;-58
2021/06/15 04:13:41;;;;;;;9.35;6.95;;;19.50;86.70;;;;;;5077061;28;20046;-57
2021/06/15 04:16:27;;;;;;;10.35;7.47;;;19.50;86.60;;;;;;5077258;28;20051;-60
2021/06/15 04:19:18;;;;;;;10.52;7.53;;;19.60;86.70;;;;;;5090126;28;20054;-56
2021/06/15 04:22:05;;;;;;;10.77;8.50;;;19.60;86.20;;;;;;5091945;28;20086;-59
2021/06/15 04:24:53;;;;;;;9.52;8.45;;;19.00;86.30;;;;;;5075472;28;20441;-59
2021/06/15 04:27:38;;;;;;;12.73;9.02;;;18.50;88.30;;;;;;5075396;28;20031;-59
2021/06/15 04:30:24;;;;;;;9.27;8.25;;;18.70;87.10;;;;;;5059890;28;20098;-60
2021/06/15 04:33:13;;;;;;;12.35;9.10;;;18.70;87.10;;;;;;5060373;28;20042;-59
2021/06/15 04:36:04;;;;;;;10.23;8.20;;;18.80;85.70;;;;;;5075529;28;20784;-57
2021/06/15 04:38:58;;;;;;;9.18;8.25;;;19.00;86.00;;;;;;5075403;28;20085;-59
2021/06/15 04:41:52;;;;;;;12.10;8.93;;;19.00;85.60;;;;;;5075197;28;20031;-61
2021/06/15 04:44:40;;;;;;;13.82;9.00;;;18.90;85.70;;;;;;5060284;28;20078;-57
2021/06/15 04:47:29;;;;;;;12.38;8.30;;;18.90;85.80;;;;;;5077320;28;20039;-57
2021/06/15 04:50:24;;;;;;;10.48;8.13;;;19.00;85.80;;;;;;5059567;28;20115;-56
2021/06/15 04:53:09;;;;;;;;;;;19.20;85.30;;;;;;5075302;28;20104;-58
2021/06/15 04:55:54;;;;;;;9.60;8.15;;;19.40;84.70;;;;;;5074314;28;20283;-58
2021/06/15 04:58:42;;;;;;;10.48;9.02;;;19.40;84.70;;;;;;5058857;28;20040;-60
2021/06/15 05:01:27;;;;;;;11.18;7.95;;;19.50;84.60;;;;;;5075066;28;20036;-60
2021/06/15 05:04:12;;;;;;;;;;;19.50;84.60;;;;;;5075196;28;20109;-59
2021/06/15 05:06:56;;;;;;;13.48;8.35;;;19.60;84.50;;;;;;5074316;28;19911;-59
2021/06/15 05:09:42;;;;;;;9.55;7.80;;;19.40;85.40;;;;;;5059541;28;20068;-57
2021/06/15 05:12:34;;;;;;;10.13;7.68;;;19.50;85.20;;;;;;5074667;28;20119;-56
2021/06/15 05:15:21;;;;;;;8.38;7.20;;;19.70;84.60;;;;;;5078183;28;20030;-57
2021/06/15 05:18:06;;;;;;;9.20;8.20;;;19.90;84.20;;;;;;5086095;28;20042;-59
2021/06/15 05:20:50;;;;;;;10.32;8.45;;;20.00;83.60;;;;;;5095574;28;20506;-60
2021/06/15 05:23:55;;;;;;;9.57;7.75;;;20.00;83.50;;;;;;5095431;28;20395;-58
2021/06/15 05:26:39;;;;;;;13.02;8.27;;;20.00;83.20;;;;;;5079501;28;20050;-56
2021/06/15 05:29:22;;;;;;;12.23;7.55;;;19.80;83.70;;;;;;5094380;28;20564;-55
2021/06/15 05:32:08;;;;;;;11.68;7.45;;;19.90;83.50;;;;;;5094795;28;20090;-57
2021/06/15 05:34:52;;;;;;;10.57;7.53;;;20.00;83.40;;;;;;5094747;28;20031;-55
2021/06/15 05:37:37;;;;;;;10.68;7.43;;;20.00;83.30;;;;;;5094719;28;20502;-54
2021/06/15 05:40:21;;;;;;;;;;;20.00;83.40;;;;;;5097018;28;20043;-57
2021/06/15 05:43:05;;;;;;;9.63;6.80;;;20.10;82.30;;;;;;5094778;28;19957;-56
2021/06/15 05:45:49;;;;;;;15.30;9.93;;;20.10;82.30;;;;;;5095001;28;20169;-56
2021/06/15 05:48:34;;;;;;;9.18;7.30;;;20.20;82.20;;;;;;5094223;28;20038;-56
2021/06/15 05:51:18;;;;;;;12.10;7.20;;;20.50;80.70;;;;;;5094563;28;20116;-58
2021/06/15 05:54:03;;;;;;;9.65;6.95;;;20.50;80.30;;;;;;5094827;28;20066;-57
2021/06/15 05:56:47;;;;;;;9.48;6.88;;;20.30;80.40;;;;;;5079339;28;20070;-57
2021/06/15 05:59:32;;;;;;;10.90;6.93;;;20.40;80.50;;;;;;5094345;28;20043;-55
2021/06/15 06:02:16;;;;;;;12.80;7.82;;;20.30;80.40;;;;;;5094279;28;20084;-60
2021/06/15 06:10:47;;;;;;;12.57;7.57;;;20.30;81.30;;;;;;5093886;28;20111;-58
2021/06/15 06:13:33;;;;;;;13.98;8.60;;;20.30;81.20;;;;;;5093923;28;20082;-57
2021/06/15 06:16:18;;;;;;;12.95;8.82;;;20.20;82.20;;;;;;5090442;28;20069;-59
2021/06/15 06:19:03;;;;;;;11.77;8.25;;;20.40;81.90;;;;;;5093683;28;20035;-58
2021/06/15 06:21:49;;;;;;;10.57;8.27;;;20.40;81.70;;;;;;5079323;28;20039;-57
2021/06/15 06:24:33;;;;;;;11.45;8.35;;;20.70;81.00;;;;;;5094402;28;20065;-59
2021/06/15 06:27:17;;;;;;;12.20;9.93;;;20.80;81.70;;;;;;5093227;28;20082;-59
2021/06/15 06:30:02;;;;;;;12.57;8.73;;;20.80;81.30;;;;;;5078522;28;20043;-58
2021/06/15 06:32:46;;;;;;;13.35;9.15;;;20.80;81.30;;;;;;5080007;28;20085;-58
2021/06/15 06:35:31;;;;;;;14.00;9.57;;;20.90;81.30;;;;;;5094573;28;20187;-60
2021/06/15 06:38:15;;;;;;;13.15;8.70;;;20.90;81.70;;;;;;5077606;28;20064;-60
2021/06/15 06:40:59;;;;;;;11.27;9.23;;;21.00;81.70;;;;;;5093349;28;20043;-60
2021/06/15 06:43:43;;;;;;;15.25;10.02;;;21.30;80.60;;;;;;5077833;28;20051;-59
2021/06/15 06:46:27;;;;;;;11.65;9.45;;;21.10;81.60;;;;;;5093015;28;20594;-60
2021/06/15 06:49:11;;;;;;;16.25;9.30;;;21.20;81.40;;;;;;5092059;28;20059;-61
2021/06/15 06:51:55;;;;;;;14.38;9.32;;;21.50;80.50;;;;;;5093124;28;20054;-57
2021/06/15 06:54:39;;;;;;;12.07;9.32;;;21.70;79.50;;;;;;5077468;28;20393;-60
2021/06/15 06:57:23;;;;;;;17.02;9.93;;;21.80;78.00;;;;;;5092749;28;20177;-59
2021/06/15 07:00:08;;;;;;;14.27;9.50;;;21.90;77.80;;;;;;5092898;28;20088;-54
2021/06/15 07:02:52;;;;;;;10.38;8.60;;;22.00;77.40;;;;;;5092808;28;20089;-58
2021/06/15 07:05:36;;;;;;;12.93;9.23;;;22.10;77.50;;;;;;5092891;28;20097;-57
2021/06/15 07:08:20;;;;;;;13.85;10.60;;;22.00;76.50;;;;;;5092318;28;20035;-58
2021/06/15 07:11:04;;;;;;;12.98;10.32;;;21.50;78.40;;;;;;5093800;28;20047;-57
2021/06/15 07:13:49;;;;;;;14.27;10.52;;;21.60;78.80;;;;;;5093154;28;20112;-58
2021/06/15 07:16:33;;;;;;;12.25;9.88;;;21.80;78.00;;;;;;5088964;28;20085;-55
2021/06/15 07:19:17;;;;;;;12.00;9.90;;;21.90;78.10;;;;;;5092697;28;20063;-54
2021/06/15 07:22:01;;;;;;;13.63;10.15;;;22.10;77.80;;;;;;5093289;28;20039;-60
2021/06/15 07:24:45;;;;;;;14.90;10.27;;;22.00;78.30;;;;;;5094006;28;20047;-56
2021/06/15 07:27:29;;;;;;;13.75;10.27;;;22.10;78.20;;;;;;5093407;28;20399;-54
2021/06/15 07:30:14;;;;;;;16.95;11.68;;;22.40;77.50;;;;;;5092515;28;20089;-59
2021/06/15 07:32:58;;;;;;;17.02;10.90;;;22.30;77.40;;;;;;5077305;28;20663;-57
2021/06/15 07:35:43;;;;;;;14.50;10.80;;;22.30;77.80;;;;;;5092727;28;20035;-60
2021/06/15 07:38:27;;;;;;;;;;;22.30;77.50;;;;;;5091514;28;20043;-57
2021/06/15 07:41:11;;;;;;;15.10;10.90;;;22.20;77.20;;;;;;5092540;28;19918;-58
2021/06/15 07:43:55;;;;;;;14.93;11.15;;;22.10;78.20;;;;;;5077271;28;20121;-56
2021/06/15 07:46:40;;;;;;;16.17;10.80;;;22.20;78.00;;;;;;5091987;28;20111;-57
2021/06/15 07:49:24;;;;;;;13.40;11.32;;;22.40;77.30;;;;;;5091886;28;20039;-56
2021/06/15 07:52:08;;;;;;;15.20;10.55;;;22.50;77.20;;;;;;5092393;28;20108;-57
2021/06/15 07:54:52;;;;;;;;;;;22.50;77.40;;;;;;5092458;28;20043;-61
2021/06/15 07:57:37;;;;;;;16.47;11.50;;;22.50;77.50;;;;;;5076860;28;19977;-58
2021/06/15 08:00:21;;;;;;;18.83;11.68;;;22.50;77.30;;;;;;5077223;28;20522;-59
2021/06/15 08:03:06;;;;;;;14.77;11.48;;;22.40;77.20;;;;;;5076795;28;20039;-57
2021/06/15 08:05:51;;;;;;;20.10;11.98;;;22.40;76.70;;;;;;5094611;28;20049;-60
2021/06/15 08:08:35;;;;;;;;;;;22.50;77.10;;;;;;5112482;28;20033;-56
2021/06/15 08:11:19;;;;;;;16.47;11.03;;;22.50;77.10;;;;;;5112562;28;20011;-60
2021/06/15 08:14:03;;;;;;;13.93;11.10;;;22.60;77.40;;;;;;5097214;28;20035;-60
2021/06/15 08:16:47;;;;;;;16.23;11.90;;;22.90;77.10;;;;;;5088671;28;20541;-62
2021/06/15 08:19:31;;;;;;;17.58;12.30;;;22.70;76.60;;;;;;5089391;28;20743;-58
2021/06/15 08:22:16;;;;;;;17.83;11.85;;;22.90;76.30;;;;;;5071709;28;20178;-57
2021/06/15 08:25:01;;;;;;;13.25;11.13;;;22.90;76.00;;;;;;5074928;28;20077;-58
2021/06/15 08:27:45;;;;;;;13.45;10.82;;;22.90;76.30;;;;;;5091514;28;20084;-57
2021/06/15 08:30:29;;;;;;;12.57;10.48;;;22.80;77.10;;;;;;5091534;28;20097;-55
2021/06/15 08:33:15;;;;;;;14.00;11.63;;;23.10;76.20;;;;;;5076553;28;20055;-56
2021/06/15 08:35:59;;;;;;;15.95;11.30;;;23.30;75.60;;;;;;5077377;28;20039;-55
2021/06/15 08:38:43;;;;;;;15.48;11.63;;;23.20;76.20;;;;;;5091295;28;20051;-56
2021/06/15 08:41:27;;;;;;;15.82;12.05;;;23.20;76.60;;;;;;5091784;28;20034;-56
2021/06/15 08:44:12;;;;;;;18.33;11.75;;;23.20;76.30;;;;;;5092025;28;20038;-60
2021/06/15 08:46:56;;;;;;;;;;;23.10;76.40;;;;;;5092028;28;20042;-60
2021/06/15 08:49:44;;;;;;;17.33;12.00;;;22.90;76.40;;;;;;5092006;28;20382;-61
2021/06/15 08:52:29;;;;;;;17.63;12.85;;;22.70;77.30;;;;;;5095292;28;20447;-60
2021/06/15 08:55:14;;;;;;;;;;;23.00;77.00;;;;;;5099306;28;20039;-57
2021/06/15 08:58:32;;;;;;;14.27;11.45;;;23.20;76.90;;;;;;5083744;28;19961;-53
2021/06/15 09:01:16;;;;;;;12.95;10.80;;;23.10;77.00;;;;;;5095381;28;20534;-54
2021/06/15 09:04:00;;;;;;;18.88;12.43;;;23.00;76.70;;;;;;5087883;28;20047;-56
2021/06/15 09:06:46;;;;;;;15.60;12.75;;;23.30;76.20;;;;;;5075309;28;20424;-59
2021/06/15 09:09:45;;;;;;;18.58;13.05;;;23.20;75.50;;;;;;5059521;28;20086;-58
2021/06/15 09:12:34;;;;;;;20.58;12.65;;;23.30;75.80;;;;;;5087142;28;20047;-59
2021/06/15 09:15:21;;;;;;;16.13;11.95;;;23.50;75.70;;;;;;5072609;28;20024;-60
2021/06/15 09:18:05;;;;;;;16.08;12.05;;;23.50;75.00;;;;;;5078957;28;20039;-58
2021/06/15 09:20:49;;;;;;;15.88;11.50;;;23.60;75.00;;;;;;5091922;28;20093;-60
2021/06/15 09:23:34;;;;;;;14.52;10.82;;;23.80;74.50;;;;;;5094861;28;20063;-59
2021/06/15 09:26:19;;;;;;;17.98;12.68;;;24.00;74.20;;;;;;5088502;28;20126;-54
2021/06/15 09:29:06;;;;;;;14.70;12.18;;;23.80;73.90;;;;;;5094021;28;20039;-57
2021/06/15 09:32:01;;;;;;;18.30;12.75;;;24.00;74.10;;;;;;5094986;28;20074;-56
2021/06/15 09:34:55;;;;;;;15.35;12.07;;;23.90;73.90;;;;;;5045549;28;20099;-56
2021/06/15 09:37:49;;;;;;;15.60;12.00;;;24.00;74.30;;;;;;5075522;28;20031;-57
2021/06/15 09:40:34;;;;;;;;;;;24.30;73.90;;;;;;5085924;28;20063;-61
2021/06/15 09:43:18;;;;;;;;;;;24.10;74.00;;;;;;5074981;28;20018;-57
2021/06/15 09:46:14;;;;;;;15.30;12.23;;;24.00;73.30;;;;;;5075070;28;19915;-57
2021/06/15 09:48:59;;;;;;;16.98;13.65;;;24.00;73.90;;;;;;5073615;28;20676;-59
2021/06/15 09:51:43;;;;;;;15.32;13.55;;;24.20;73.40;;;;;;5093538;28;20043;-60
2021/06/15 09:54:42;;;;;;;17.88;13.57;;;24.10;73.70;;;;;;5094897;28;20088;-61
2021/06/15 09:57:29;;;;;;;16.92;14.07;;;24.30;74.10;;;;;;5093751;28;20085;-59
2021/06/15 10:00:18;;;;;;;21.67;14.95;;;24.30;73.90;;;;;;5093902;28;20085;-56
2021/06/15 10:03:03;;;;;;;18.42;14.05;;;24.30;73.10;;;;;;5094984;28;20042;-59
2021/06/15 10:05:47;;;;;;;;;;;24.30;72.50;;;;;;5095615;28;20225;-57
2021/06/15 10:08:45;;;;;;;20.88;15.52;;;24.40;72.90;;;;;;5078049;28;19919;-55
2021/06/15 10:11:31;;;;;;;24.67;16.92;;;24.10;72.50;;;;;;5094943;28;20039;-57
2021/06/15 10:14:16;;;;;;;21.63;15.70;;;24.00;73.10;;;;;;5079467;28;20090;-58
2021/06/15 10:17:01;;;;;;;19.73;13.90;;;24.20;73.70;;;;;;5091082;28;20086;-61
2021/06/15 10:19:46;;;;;;;18.00;14.15;;;24.20;71.70;;;;;;5094190;28;20034;-58
2021/06/15 10:22:31;;;;;;;19.92;14.98;;;24.20;71.40;;;;;;5093899;28;20521;-58
2021/06/15 10:25:17;;;;;;;17.42;14.27;;;24.30;72.30;;;;;;5084861;28;20058;-60
2021/06/15 10:28:10;;;;;;;17.63;13.75;;;24.60;71.80;;;;;;5093838;28;20047;-60
2021/06/15 10:31:01;;;;;;;18.83;15.15;;;25.10;70.90;;;;;;5093975;28;20585;-59
2021/06/15 10:33:47;;;;;;;21.38;16.92;;;25.40;69.90;;;;;;5093812;28;20031;-58
2021/06/15 10:36:44;;;;;;;19.13;15.25;;;25.40;70.00;;;;;;5093945;28;20035;-56
2021/06/15 10:39:41;;;;;;;20.35;15.18;;;25.40;70.40;;;;;;5093415;28;20034;-58
2021/06/15 10:42:26;;;;;;;18.95;16.08;;;25.30;70.30;;;;;;5094124;28;20106;-61
2021/06/15 10:45:13;;;;;;;22.05;16.48;;;25.50;70.10;;;;;;5093866;28;20602;-56
2021/06/15 10:48:06;;;;;;;22.98;15.00;;;25.60;70.00;;;;;;5090743;28;20118;-60
2021/06/15 10:50:52;;;;;;;23.15;16.90;;;25.70;69.90;;;;;;5078693;28;20081;-60
2021/06/15 10:53:40;;;;;;;21.23;16.65;;;25.60;70.50;;;;;;5098474;28;20089;-58
2021/06/15 10:56:24;;;;;;;22.02;17.55;;;25.50;70.60;;;;;;5103995;28;20401;-61
2021/06/15 10:59:10;;;;;;;19.70;16.23;;;25.70;70.50;;;;;;5094759;28;20089;-58
2021/06/15 11:02:08;;;;;;;18.58;14.50;;;26.00;69.80;;;;;;5108366;28;20419;-58
2021/06/15 11:04:52;;;;;;;19.25;15.25;;;26.10;68.80;;;;;;5094623;28;20097;-57
2021/06/15 11:07:39;;;;;;;17.45;14.65;;;26.00;68.40;;;;;;5095051;28;20043;-57
2021/06/15 11:10:43;;;;;;;15.25;13.50;;;25.70;69.90;;;;;;5094090;28;20118;-57
2021/06/15 11:13:47;;;;;;;20.85;14.48;;;25.90;69.40;;;;;;5094264;28;20088;-56
2021/06/15 11:16:40;;;;;;;17.98;13.85;;;26.00;68.80;;;;;;5075322;28;20043;-59
2021/06/15 11:19:24;;;;;;;17.95;13.32;;;25.90;67.80;;;;;;5069468;28;20513;-59
2021/06/15 11:22:12;;;;;;;15.10;12.05;;;25.70;69.00;;;;;;5094110;28;20533;-59
2021/06/15 11:25:01;;;;;;;18.80;14.18;;;25.80;69.10;;;;;;5085685;28;20055;-59
2021/06/15 11:27:45;;;;;;;13.40;11.75;;;25.80;68.70;;;;;;5079062;28;20070;-60
2021/06/15 11:30:30;;;;;;;18.40;13.10;;;25.90;68.70;;;;;;5079750;28;20086;-59
2021/06/15 11:33:14;;;;;;;17.20;13.32;;;25.90;68.70;;;;;;5094286;28;20097;-61
2021/06/15 11:35:58;;;;;;;18.20;12.32;;;25.40;70.20;;;;;;5093719;28;20055;-55
2021/06/15 11:39:21;;;;;;;14.88;11.32;;;25.40;70.50;;;;;;5092345;28;20055;-58
2021/06/15 11:42:29;;;;;;;16.48;10.90;;;25.40;70.90;;;;;;5092463;28;20498;-59
2021/06/15 11:45:20;;;;;;;20.48;12.38;;;25.60;70.60;;;;;;5092962;28;20081;-57
2021/06/15 11:48:31;;;;;;;17.05;13.15;;;25.60;70.70;;;;;;5092565;28;20028;-58
2021/06/15 11:51:26;;;;;;;13.68;11.98;;;25.50;70.60;;;;;;5092458;28;20028;-57
2021/06/15 11:54:11;;;;;;;16.98;13.50;;;25.50;70.20;;;;;;5079160;28;20055;-58
2021/06/15 11:57:00;;;;;;;16.13;12.70;;;25.50;70.30;;;;;;5091990;28;20071;-59
2021/06/15 11:59:47;;;;;;;17.35;12.48;;;25.60;70.10;;;;;;5092043;28;20109;-62
2021/06/15 12:02:35;;;;;;;16.02;11.93;;;25.50;69.90;;;;;;5079958;28;20043;-57
2021/06/15 12:05:19;;;;;;;19.55;12.38;;;25.70;69.40;;;;;;5077327;28;20093;-60
2021/06/15 12:08:04;;;;;;;14.20;11.55;;;25.50;69.10;;;;;;5092033;28;20089;-57
2021/06/15 12:10:50;;;;;;;12.40;11.07;;;25.50;68.50;;;;;;5091793;28;20035;-55
2021/06/15 12:13:35;;;;;;;17.25;10.70;;;25.40;67.40;;;;;;5091686;28;20039;-53
2021/06/15 12:16:29;;;;;;;14.18;9.50;;;25.70;66.90;;;;;;5088061;28;20031;-57
2021/06/15 12:19:14;;;;;;;15.48;12.13;;;26.00;66.70;;;;;;5090926;28;20089;-60
2021/06/15 12:21:58;;;;;;;13.80;11.50;;;26.10;66.80;;;;;;5091851;28;20106;-59
2021/06/15 12:24:43;;;;;;;17.67;12.15;;;26.30;66.90;;;;;;5082199;28;20223;-57
2021/06/15 12:27:27;;;;;;;15.95;13.45;;;26.20;67.90;;;;;;5091943;28;20047;-60
2021/06/15 12:30:12;;;;;;;14.68;12.20;;;26.30;68.00;;;;;;5059797;28;20043;-61
2021/06/15 12:32:56;;;;;;;15.80;12.43;;;26.30;67.80;;;;;;5062501;28;20094;-61
2021/06/15 12:35:41;;;;;;;16.60;11.90;;;26.60;67.70;;;;;;5081457;28;20071;-58
2021/06/15 12:38:25;;;;;;;16.23;10.15;;;26.80;67.20;;;;;;5095428;28;20070;-58
2021/06/15 12:41:14;;;;;;;14.25;11.75;;;26.90;66.30;;;;;;5080177;28;20141;-60
2021/06/15 12:44:01;;;;;;;15.32;12.07;;;26.60;66.10;;;;;;5095405;28;20522;-57
2021/06/15 12:46:45;;;;;;;16.02;12.75;;;26.30;66.50;;;;;;5094976;28;20043;-57
2021/06/15 12:49:30;;;;;;;16.55;11.40;;;26.50;66.00;;;;;;5095375;28;20061;-59
2021/06/15 12:52:14;;;;;;;18.08;11.50;;;26.40;66.70;;;;;;5079922;28;20067;-60
2021/06/15 12:55:13;;;;;;;18.77;12.30;;;25.90;68.20;;;;;;5095044;28;20031;-57
2021/06/15 12:58:00;;;;;;;14.48;12.18;;;25.90;67.80;;;;;;5094441;28;20038;-57
2021/06/15 13:00:45;;;;;;;23.17;13.38;;;25.70;68.20;;;;;;5095341;28;20038;-59
2021/06/15 13:03:36;;;;;;;18.85;12.05;;;25.80;68.80;;;;;;5094864;28;20517;-57
2021/06/15 13:06:24;;;;;;;17.80;11.27;;;25.80;68.60;;;;;;5095045;28;20061;-58
2021/06/15 13:09:16;;;;;;;15.73;10.98;;;26.10;68.50;;;;;;5094634;28;20081;-58
2021/06/15 13:12:01;;;;;;;14.50;11.55;;;26.30;68.30;;;;;;5095422;28;20058;-59
2021/06/15 13:14:53;;;;;;;11.65;10.27;;;26.60;67.70;;;;;;5092138;28;20073;-56
2021/06/15 13:17:38;;;;;;;20.33;12.15;;;26.90;66.30;;;;;;5065475;28;20631;-59
2021/06/15 13:20:24;;;;;;;13.80;10.95;;;27.20;65.30;;;;;;5094297;28;20062;-57
2021/06/15 13:23:19;;;;;;;17.98;10.95;;;27.40;64.20;;;;;;5079413;28;20039;-60
2021/06/15 13:26:20;;;;;;;13.13;10.75;;;27.60;64.80;;;;;;5086658;28;20035;-58
2021/06/15 13:29:04;;;;;;;17.60;12.45;;;27.40;64.50;;;;;;5094670;28;20492;-58
2021/06/15 13:31:48;;;;;;;13.82;10.93;;;26.90;65.70;;;;;;5079003;28;20047;-57
2021/06/15 13:34:32;;;;;;;14.95;11.48;;;27.10;65.40;;;;;;5095578;28;20076;-60
2021/06/15 13:37:16;;;;;;;16.45;11.50;;;27.10;64.00;;;;;;5087703;28;20137;-57
2021/06/15 13:40:00;;;;;;;;;;;27.10;64.20;;;;;;5090073;28;20046;-56
2021/06/15 13:42:44;;;;;;;15.65;11.00;;;27.40;64.40;;;;;;5079646;28;19961;-59
2021/06/15 13:45:35;;;;;;;;;;;27.80;64.40;;;;;;5074512;28;20044;-55
2021/06/15 13:48:21;;;;;;;15.15;11.80;;;27.90;63.50;;;;;;5087441;28;19911;-58
2021/06/15 13:51:13;;;;;;;14.90;10.68;;;27.70;63.20;;;;;;5094371;28;20030;-55
2021/06/15 13:54:01;;;;;;;14.57;10.95;;;27.60;64.20;;;;;;5088065;28;20673;-56
2021/06/15 13:56:45;;;;;;;15.75;11.65;;;28.00;63.70;;;;;;5073715;28;20163;-57
2021/06/15 13:59:30;;;;;;;14.52;10.00;;;28.00;62.70;;;;;;5074082;28;20074;-60
2021/06/15 14:02:14;;;;;;;12.65;11.00;;;28.10;63.10;;;;;;5074789;28;20431;-60
2021/06/15 14:04:58;;;;;;;;;;;28.20;62.00;;;;;;5084970;28;20078;-58
2021/06/15 14:07:42;;;;;;;12.80;10.40;;;28.20;62.00;;;;;;5094371;28;20036;-57
2021/06/15 14:10:27;;;;;;;12.60;10.52;;;27.90;62.00;;;;;;5093802;28;20564;-60
2021/06/15 14:13:14;;;;;;;13.27;10.52;;;27.60;62.80;;;;;;5094176;28;20127;-57
2021/06/15 14:15:58;;;;;;;13.85;10.77;;;27.40;61.90;;;;;;5083313;28;20665;-59
2021/06/15 14:18:42;;;;;;;;;;;27.60;61.40;;;;;;5093876;28;20665;-61
2021/06/15 14:21:26;;;;;;;12.63;10.27;;;27.60;61.00;;;;;;5078651;28;19915;-60
2021/06/15 14:24:10;;;;;;;12.15;9.65;;;27.90;61.00;;;;;;5093774;28;20035;-58
2021/06/15 14:27:01;;;;;;;13.88;10.68;;;27.90;61.50;;;;;;5093249;28;20038;-61
2021/06/15 14:29:45;;;;;;;14.23;9.77;;;27.90;61.40;;;;;;5093410;28;20027;-59